LZKZ/KSC METAR and TAF weather

Enter ICAO airport designator
Station Type Date Time Source
LZKZ METAR 2021/03/09 10:30 UTC NOAA

LZKZ 091030Z 02004KT 310V080 CAVOK 03/M11 Q1021 NOSIG


Station Type Date Time Source
LZKZ Decoded METAR 2021/03/09 10:30 UTC NOAA

Kosice, Barca, Slovakia (LZKZ) 48-39-47N 021-14-28E
Mar 09, 2021 - 05:30 AM EST / 2021.03.09 1030 UTC
Wind: from the NNE (020 degrees) at 5 MPH (4 KT) (direction variable):0
Visibility: greater than 7 mile(s):0
Temperature: 37 F (3 C)
Dew Point: 12 F (-11 C)
Relative Humidity: 34%
Pressure (altimeter): 30.15 in. Hg (1021 hPa)
ob: LZKZ 091030Z 02004KT 310V080 CAVOK 03/M11 Q1021 NOSIG
cycle: 10

Station Type Date Time Source
LZKZ TAF 2021/03/09 06:48 UTC NOAA

TAF LZKZ 090500Z 0906/1006 05006KT CAVOK
TEMPO 0910/0914 9999 BKN045
BECMG 0920/0922 36010KT

Example: see airport list